Terminal Aerodrome Forecast
Issued by NWS Pendleton, OR

Home | Current Version | Previous Version | Text Only | Print | Product List | Glossary On
Versions: 1 2 3 4 5 6 7 8 9 10 11 12
616
FTUS46 KPDT 291730
TAFPDT
TAF
KPDT 291730Z 2918/3018 31007KT P6SM SCT150 SCT250
     FM300300 21006KT P6SM SCT100 BKN200
     FM300900 16005KT P6SM SCT100 BKN200
     FM301700 28007KT P6SM FEW100 FEW200=

USA.gov is the U.S. government's official web portal to all federal, state and local government web resources and services.